Flight Track Log - Related Links

Times and Time Zones

All times are in EDT time to prevent confusion due to time zone crossing. See the RPA3392 flight status page for this flight to view local times or setup timezone preferences in your user account.

Time Position Orientation Groundspeed Altitude Reporting Facility
EDT Latitude Longitude Course Direction KTS MPH feet Rate Location/Type
Mon 11:14:04 PM 38.8772 -77.0661 90° East 180 207 1,500  Level Washington Center
Mon 11:14:55 PM 38.9167 -77.1000 326° Northwest 241 277 3,400 2,743 Climbing Potomac TRACON
Mon 11:15:49 PM 38.9833 -77.1500 330° Northwest 282 325 6,300 3,368 Climbing Potomac TRACON
Mon 11:16:00 PM 38.9716 -76.6735 57° Northeast  Level FlightAware Approximate
Mon 11:16:49 PM 39.0333 -77.1167 27° Northeast 284 327 9,800  Level Potomac TRACON
Mon 11:17:00 PM 39.0206 -76.5549 67° East  Level FlightAware Approximate
Mon 11:18:00 PM 39.0665 -76.4338 63° Northeast  Level FlightAware Approximate
Mon 11:19:00 PM 39.1167 -76.3155 90° East  Level FlightAware Approximate
Mon 11:19:06 PM 39.0736 -76.8508 79° East 337 388 13,600  Level Washington Center
Mon 11:20:04 PM 39.0917 -76.7122 80° East 370 426 15,800 2,168 Climbing Washington Center
Mon 11:21:05 PM 39.1075 -76.5681 82° East 387 445 17,900 2,311 Climbing Washington Center
Mon 11:22:06 PM 39.1253 -76.4264 81° East 399 459 20,500 2,420 Climbing Washington Center
Mon 11:23:04 PM 39.1406 -76.2875 82° East 399 459 22,700 1,271 Climbing Washington Center
Mon 11:24:04 PM 39.1622 -76.1564 78° East 404 465 23,000 200 Climbing Washington Center
Mon 11:25:04 PM 39.1772 -76.0119 82° East 409 471 23,100 541 Climbing Washington Center
Mon 11:26:06 PM 39.2069 -75.8675 75° East 409 471 24,100 950 Climbing Washington Center
Mon 11:27:04 PM 39.2906 -75.7578 45° Northeast 406 467 25,000 1,017 Climbing Washington Center
Mon 11:28:04 PM 39.3761 -75.6425 46° Northeast 421 484 26,100 1,033 Climbing Washington Center
Mon 11:29:06 PM 39.4656 -75.5269 45° Northeast 438 504 27,100 942 Climbing Washington Center
Mon 11:30:05 PM 39.5550 -75.4111 45° Northeast 449 517 28,000 966 Climbing Washington Center
Mon 11:31:04 PM 39.6444 -75.2950 45° Northeast 454 522 29,000 504 Climbing Washington Center
Mon 11:32:04 PM 39.7336 -75.1678 48° Northeast 459 528 29,000  Level Washington Center
Mon 11:33:05 PM 39.8289 -75.0322 48° Northeast 466 536 29,000  Level Washington Center
Mon 11:35:16 PM 40.0189 -74.7606 48° Northeast 465 535 29,000  Level New York Center
Mon 11:36:15 PM 40.1067 -74.6356 47° Northeast 465 535 29,000  Level New York Center
Mon 11:37:18 PM 40.1961 -74.5100 47° Northeast 465 535 29,000  Level New York Center
Mon 11:38:16 PM 40.3108 -74.4347 27° Northeast 453 521 29,000  Level New York Center
Mon 11:39:18 PM 40.4347 -74.4058 10° North 431 496 29,000  Level New York Center
Mon 11:40:15 PM 40.5608 -74.3714 12° North 442 509 29,000 -69 Level New York Center
Mon 11:42:13 PM 40.7925 -74.3181 10° North 471 542 28,800 -404 Descending Boston Center
Mon 11:43:13 PM 40.9139 -74.2886 10° North 462 532 27,800 -1,000 Descending Boston Center
Mon 11:44:13 PM 41.0353 -74.2561 11° North 448 516 26,800 -900 Descending Boston Center
Mon 11:45:13 PM 41.1567 -74.2239 11° North 442 509 26,000 -400 Descending Boston Center
Mon 11:46:13 PM 41.2739 -74.1911 12° North 436 502 26,000  Level Boston Center
Mon 11:47:13 PM 41.3933 -74.1583 12° North 430 495 26,000 -450 Level Boston Center
Mon 11:48:13 PM 41.5144 -74.1283 11° North 430 495 25,100 -2,150 Descending Boston Center
Mon 11:49:13 PM 41.6358 -74.0983 10° North 437 503 21,700 -2,800 Descending Boston Center
Mon 11:50:13 PM 41.7467 -74.0678 12° North 421 484 19,500 -2,150 Descending Boston Center
Mon 11:51:13 PM 41.8639 -74.0375 11° North 397 457 17,400 -2,229 Descending Boston Center
Mon 11:51:58 PM 41.9414 -74.0197 10° North 396 456 15,600 -2,200 Descending Boston Center
Mon 11:52:13 PM 41.9600 -74.0147 11° North 391 450 15,200 -2,091 Descending Boston Center
Mon 11:53:04 PM 42.0628 -73.9836 13° North 385 443 13,300 -2,089 Descending Boston Center
Mon 11:54:05 PM 42.1653 -73.9583 10° North 376 433 11,300 -1,388 Descending Boston Center
Mon 11:55:05 PM 42.2631 -73.9606 359° North 333 383 10,500 -992 Descending Boston Center
Mon 11:56:06 PM 42.3422 -73.9708 355° North 280 322 9,300 -1,475 Descending Boston Center
Mon 11:57:07 PM 42.4214 -73.9786 356° North 278 320 7,500 -1,519 Descending Boston Center
Mon 11:57:25 PM 42.4317 -73.9761 10° North 283 326 7,300 -1,900 Descending Boston Center
Mon 11:58:07 PM 42.4983 -73.9833 355° North 279 321 5,600 -2,200 Descending Boston Center
Mon 11:58:25 PM 42.5275 -73.9839 359° North 278 320 5,100 -1,377 Descending Boston Center
Mon 11:59:08 PM 42.5775 -73.9797 North 284 327 4,200 -1,100 Descending Boston Center
Mon 11:59:25 PM 42.6025 -73.9744 North 273 314 4,000 -200 Descending Boston Center
Tue 12:00:08 AM 42.6506 -73.9672 North 254 292 4,000  Level Boston Center
Tue 12:00:25 AM 42.6736 -73.9650 North 268 308 4,000  Level Boston Center
Tue 12:01:09 AM 42.7236 -73.9578 North 239 275 4,000  Level Boston Center
Tue 12:01:25 AM 42.7406 -73.9553 North 254 292 4,000  Level Boston Center
Tue 12:02:10 AM 42.7928 -73.9453 North 244 281 4,000  Level Boston Center
Tue 12:02:25 AM 42.8072 -73.9456 359° North 249 287 4,000 -500 Level Boston Center
Tue 12:03:10 AM 42.8553 -73.9297 14° North 235 270 3,500 -700 Descending Boston Center
Tue 12:03:25 AM 42.8617 -73.9214 44° Northeast 230 265 3,300 -590 Descending Boston Center
Tue 12:04:11 AM 42.9122 -73.8917 23° Northeast 231 266 2,900 -650 Descending Boston Center
Tue 12:05:25 AM 42.9028 -73.8147 99° East 159 183 2,000 -446 Descending Boston Center
Tue 12:06:12 AM 42.8694 -73.8111 175° South 145 167 2,000 -222 Level Boston Center
Tue 12:07:13 AM 42.8297 -73.8131 182° South 148 170 1,600 -545 Descending Boston Center
Tue 12:08:13 AM 42.7922 -73.8094 176° South 130 150 900 -645 Descending Boston Center
Tue 12:09:14 AM 42.7569 -73.8058 176° South 122 140 300 -590 Descending Boston Center

Login

Don't have an account? Register now (free) for customized features, flight alerts, and more!